Time;durP1;ratioP1;P1;durP2;ratioP2;P2;SDS_P1;SDS_P2;PMS_P1;PMS_P2;Temp;Humidity;BMP_temperature;BMP_pressure;BME280_temperature;BME280_humidity;BME280_pressure;Samples;Min_cycle;Max_cycle;Signal;HPM_P1;HPM_P2
2023/02/28 00:00:33;;;;;;;42.83;21.75;;;26.20;2201.60;;;;;;5095462;28;20032;-79
2023/02/28 00:03:17;;;;;;;36.33;19.48;;;26.20;2201.60;;;;;;5094965;28;20054;-78
2023/02/28 00:05:43;;;;;;;34.70;17.50;;;26.20;2201.60;;;;;;5094958;28;20127;-79
2023/02/28 00:08:09;;;;;;;32.08;16.25;;;26.10;2201.60;;;;;;5077215;28;20066;-79
2023/02/28 00:10:35;;;;;;;32.35;15.65;;;26.10;2201.60;;;;;;5095409;28;20024;-79
2023/02/28 00:13:04;;;;;;;36.85;17.00;;;26.10;2201.60;;;;;;5076038;28;20115;-80
2023/02/28 00:15:30;;;;;;;34.45;17.73;;;26.10;2201.60;;;;;;5097897;28;20564;-79
2023/02/28 00:17:56;;;;;;;36.33;17.60;;;26.10;2201.60;;;;;;5096211;28;20031;-79
2023/02/28 00:20:22;;;;;;;33.80;17.02;;;26.10;2201.60;;;;;;5097142;28;20048;-80
2023/02/28 00:22:51;;;;;;;34.17;17.33;;;25.80;2201.60;;;;;;5097036;28;20525;-80
2023/02/28 00:25:20;;;;;;;40.97;19.33;;;26.00;2201.60;;;;;;5097825;28;20078;-79
2023/02/28 00:27:46;;;;;;;36.22;17.33;;;26.00;2201.60;;;;;;5097592;28;20020;-80
2023/02/28 00:30:18;;;;;;;38.33;18.25;;;26.00;2201.60;;;;;;5095389;28;20170;-80
2023/02/28 00:32:44;;;;;;;35.85;16.80;;;26.10;2201.60;;;;;;5092458;28;20020;-81
2023/02/28 00:35:11;;;;;;;34.75;16.30;;;26.10;2201.60;;;;;;5080459;28;20027;-80
2023/02/28 00:37:37;;;;;;;31.35;15.23;;;26.00;2201.60;;;;;;5097579;28;20049;-80
2023/02/28 00:40:06;;;;;;;32.38;16.08;;;26.00;2201.60;;;;;;5079049;28;20075;-80
2023/02/28 00:42:33;;;;;;;30.15;14.80;;;26.00;2201.60;;;;;;5096253;28;20028;-79
2023/02/28 00:44:59;;;;;;;32.25;16.20;;;26.00;2201.60;;;;;;5096959;28;20472;-80
2023/02/28 00:47:25;;;;;;;32.13;16.05;;;26.00;2201.60;;;;;;5097643;28;20032;-80
2023/02/28 00:50:11;;;;;;;33.40;15.80;;;25.90;2201.60;;;;;;5094861;28;20028;-79
2023/02/28 00:52:37;;;;;;;26.88;13.57;;;25.90;2201.60;;;;;;5078207;28;20548;-80
2023/02/28 00:55:03;;;;;;;29.10;14.73;;;25.90;2201.60;;;;;;5094912;28;20044;-79
2023/02/28 00:57:28;;;;;;;29.70;14.95;;;26.00;2201.60;;;;;;5084730;28;20024;-80
2023/02/28 00:59:54;;;;;;;31.25;15.13;;;26.00;2201.60;;;;;;5076276;28;20058;-80
2023/02/28 01:02:23;;;;;;;32.00;15.45;;;25.90;2201.60;;;;;;5083872;28;20032;-80
2023/02/28 01:04:49;;;;;;;33.45;16.20;;;25.90;2201.60;;;;;;5094207;28;20561;-80
2023/02/28 01:07:15;;;;;;;29.48;14.77;;;26.00;2201.60;;;;;;5094784;28;20044;-79
2023/02/28 01:09:41;;;;;;;30.88;15.30;;;26.00;2201.60;;;;;;5096605;28;20157;-80
2023/02/28 01:12:08;;;;;;;34.10;15.82;;;26.00;2201.60;;;;;;5096880;28;20077;-80
2023/02/28 01:14:34;;;;;;;31.75;15.60;;;26.00;2201.60;;;;;;5095587;28;20060;-80
2023/02/28 01:17:01;;;;;;;31.10;14.93;;;26.00;2201.60;;;;;;5096248;28;20040;-79
2023/02/28 01:19:27;;;;;;;33.22;16.65;;;26.00;2201.60;;;;;;5095736;28;20042;-79
2023/02/28 01:21:52;;;;;;;35.33;15.43;;;26.00;2201.60;;;;;;5096228;28;20110;-79
2023/02/28 01:24:19;;;;;;;31.90;15.82;;;26.00;2201.60;;;;;;5094559;28;20031;-80
2023/02/28 01:26:44;;;;;;;33.60;16.38;;;26.10;2201.60;;;;;;5095179;28;20141;-80
2023/02/28 01:29:10;;;;;;;34.33;16.60;;;26.10;2201.60;;;;;;5096111;28;20376;-79
2023/02/28 01:31:36;;;;;;;34.95;17.40;;;26.00;2201.60;;;;;;5095648;28;20063;-80
2023/02/28 01:34:02;;;;;;;34.95;16.70;;;26.00;2201.60;;;;;;5094487;28;20119;-79
2023/02/28 01:36:28;;;;;;;34.30;17.77;;;26.00;2201.60;;;;;;5094831;28;20032;-79
2023/02/28 01:38:54;;;;;;;33.75;16.25;;;26.00;2201.60;;;;;;5096477;28;20157;-79
2023/02/28 01:41:25;;;;;;;32.92;15.88;;;25.90;2201.60;;;;;;5094999;28;20099;-80
2023/02/28 01:43:58;;;;;;;36.55;15.77;;;26.00;2201.60;;;;;;5095037;28;20105;-80
2023/02/28 01:46:24;;;;;;;29.85;15.30;;;25.90;2201.60;;;;;;5094751;28;20047;-80
2023/02/28 01:48:59;;;;;;;31.17;15.90;;;25.90;2201.60;;;;;;5094795;28;20032;-79
2023/02/28 01:51:57;;;;;;;34.83;15.57;;;26.00;2201.60;;;;;;5095618;28;20035;-79
2023/02/28 01:54:29;;;;;;;32.20;15.43;;;25.90;2201.60;;;;;;5093946;28;20043;-79
2023/02/28 01:57:01;;;;;;;30.45;14.93;;;26.00;2201.60;;;;;;5093911;28;20475;-79
2023/02/28 01:59:45;;;;;;;30.52;14.43;;;25.90;2201.60;;;;;;5092702;28;20031;-80
2023/02/28 02:02:12;;;;;;;28.08;13.80;;;25.90;2201.60;;;;;;5095619;28;20390;-79
2023/02/28 02:04:46;;;;;;;29.42;15.27;;;25.90;2201.60;;;;;;5096257;28;20047;-79
2023/02/28 02:07:13;;;;;;;28.23;13.45;;;25.90;2201.60;;;;;;5096660;28;20101;-79
2023/02/28 02:09:39;;;;;;;26.92;13.60;;;25.80;2201.60;;;;;;5099962;28;20032;-79
2023/02/28 02:12:32;;;;;;;27.20;13.00;;;25.80;2201.60;;;;;;5098839;28;20031;-79
2023/02/28 02:15:14;;;;;;;27.17;12.80;;;25.80;2201.60;;;;;;5102910;28;20025;-79
2023/02/28 02:17:45;;;;;;;28.88;13.73;;;25.80;2201.60;;;;;;5101171;28;20024;-80
2023/02/28 02:20:42;;;;;;;24.83;11.90;;;25.80;2201.60;;;;;;5099829;28;20048;-79
2023/02/28 02:23:28;;;;;;;25.67;12.77;;;25.80;2201.60;;;;;;5102531;28;20484;-80
2023/02/28 02:25:56;;;;;;;27.20;12.88;;;25.80;2201.60;;;;;;5101942;28;20182;-81
2023/02/28 02:28:31;;;;;;;29.98;13.50;;;25.70;2201.60;;;;;;5100433;28;20028;-80
2023/02/28 02:31:17;;;;;;;27.67;13.10;;;25.80;2201.60;;;;;;5080953;28;20492;-79
2023/02/28 02:33:49;;;;;;;26.85;12.98;;;25.70;2201.60;;;;;;5090471;28;20036;-80
2023/02/28 02:36:41;;;;;;;25.38;12.57;;;25.70;2201.60;;;;;;5100370;28;20217;-79
2023/02/28 02:39:33;;;;;;;29.33;13.68;;;25.60;2201.60;;;;;;5100703;28;20032;-80
2023/02/28 02:42:03;;;;;;;26.13;13.00;;;25.60;2201.60;;;;;;5038019;28;20033;-81
2023/02/28 02:44:39;;;;;;;24.55;12.93;;;25.60;2201.60;;;;;;5037506;28;20061;-79
2023/02/28 02:47:11;;;;;;;30.58;13.60;;;25.60;2201.60;;;;;;5038479;28;20040;-80
2023/02/28 02:50:01;;;;;;;28.92;13.45;;;25.60;2201.60;;;;;;5037508;28;20052;-79
2023/02/28 02:52:38;;;;;;;26.55;13.25;;;25.60;2201.60;;;;;;5038982;28;20131;-81
2023/02/28 02:55:07;;;;;;;28.70;13.60;;;25.60;2201.60;;;;;;5036596;28;20014;-81
2023/02/28 02:57:58;;;;;;;30.42;14.13;;;0.90;2201.60;;;;;;5020151;28;20045;-78
2023/02/28 03:00:29;;;;;;;28.95;13.50;;;0.90;2201.60;;;;;;5036643;28;20034;-80
2023/02/28 03:02:56;;;;;;;27.58;13.13;;;0.90;2201.60;;;;;;5036730;28;20083;-79
2023/02/28 03:05:28;;;;;;;27.13;13.20;;;0.90;2201.60;;;;;;5036793;28;20120;-78
2023/02/28 03:07:54;;;;;;;28.27;13.55;;;0.90;2201.60;;;;;;5053060;28;20018;-78
2023/02/28 03:10:31;;;;;;;29.02;14.27;;;25.60;2201.60;;;;;;5036199;28;20484;-78
2023/02/28 03:13:20;;;;;;;26.50;13.25;;;25.60;2201.60;;;;;;5036122;28;20045;-79
2023/02/28 03:16:22;;;;;;;26.30;12.55;;;25.60;2201.60;;;;;;5020259;28;20075;-79
2023/02/28 03:19:09;;;;;;;28.35;13.02;;;0.90;2201.60;;;;;;4997387;28;20037;-79
2023/02/28 03:22:03;;;;;;;25.20;12.93;;;25.60;2201.60;;;;;;5016737;28;20044;-79
2023/02/28 03:24:49;;;;;;;27.58;12.95;;;25.60;2201.60;;;;;;5016440;28;20617;-82
2023/02/28 03:27:26;;;;;;;24.60;11.85;;;25.60;2201.60;;;;;;5016449;28;20136;-79
2023/02/28 03:30:12;;;;;;;23.13;11.93;;;0.90;2201.60;;;;;;5016630;28;20101;-79
2023/02/28 03:33:24;;;;;;;23.27;11.85;;;0.90;2201.60;;;;;;5016901;28;20053;-79
2023/02/28 03:36:13;;;;;;;25.30;12.00;;;0.90;2201.60;;;;;;4941100;29;20094;-79
2023/02/28 03:38:48;;;;;;;24.67;11.60;;;0.90;2201.60;;;;;;4957887;28;20046;-79
2023/02/28 03:41:32;;;;;;;26.17;12.40;;;0.90;2201.60;;;;;;4957645;29;20039;-78
2023/02/28 03:44:15;;;;;;;24.50;11.98;;;0.90;2201.60;;;;;;4962999;29;20027;-79
2023/02/28 03:46:46;;;;;;;25.60;11.85;;;25.60;2201.60;;;;;;4962312;29;20047;-79
2023/02/28 03:53:08;;;;;;;26.48;12.05;;;25.60;2201.60;;;;;;4962733;28;20511;-79
2023/02/28 03:55:48;;;;;;;24.42;11.65;;;25.60;2201.60;;;;;;4961992;28;20045;-78
2023/02/28 03:58:41;;;;;;;25.45;11.60;;;25.60;2201.60;;;;;;4986647;28;20065;-79
2023/02/28 04:01:14;;;;;;;23.10;11.70;;;25.60;2201.60;;;;;;4995722;28;20033;-80
2023/02/28 04:03:39;;;;;;;23.10;11.60;;;25.60;2201.60;;;;;;4995276;28;20038;-78
2023/02/28 04:06:12;;;;;;;25.35;11.55;;;25.60;2201.60;;;;;;4994982;28;20434;-79
2023/02/28 04:08:38;;;;;;;22.92;11.55;;;25.60;2201.60;;;;;;4977732;28;20441;-79
2023/02/28 04:11:14;;;;;;;26.40;13.00;;;25.60;2201.60;;;;;;4998596;28;20026;-79
2023/02/28 04:13:40;;;;;;;24.85;11.65;;;25.60;2201.60;;;;;;5097270;28;20435;-79
2023/02/28 04:16:13;;;;;;;21.80;11.68;;;25.60;2201.60;;;;;;5096789;28;20020;-78
2023/02/28 04:19:03;;;;;;;22.75;11.15;;;25.70;2201.60;;;;;;5078695;28;20028;-78
2023/02/28 04:21:34;;;;;;;25.48;10.75;;;25.70;2201.60;;;;;;5096560;28;20463;-79
2023/02/28 04:24:00;;;;;;;20.27;11.10;;;25.60;2201.60;;;;;;5096663;28;20035;-78
2023/02/28 04:26:33;;;;;;;26.45;10.88;;;25.70;2201.60;;;;;;5081270;28;20378;-79
2023/02/28 04:29:00;;;;;;;22.00;11.07;;;25.80;2201.60;;;;;;5096999;28;20013;-80
2023/02/28 04:31:25;;;;;;;23.58;11.90;;;25.70;2201.60;;;;;;5096462;28;20020;-78
2023/02/28 04:33:52;;;;;;;24.58;11.73;;;25.80;2201.60;;;;;;5079186;28;20088;-78
2023/02/28 04:36:18;;;;;;;23.45;11.13;;;25.80;2201.60;;;;;;5096516;28;20028;-79
2023/02/28 04:38:45;;;;;;;22.67;11.90;;;25.80;2201.60;;;;;;5096612;28;20080;-78
2023/02/28 04:41:11;;;;;;;25.77;11.27;;;25.80;2201.60;;;;;;5095565;28;20036;-77
2023/02/28 04:43:37;;;;;;;23.48;11.65;;;25.90;2201.60;;;;;;5078260;28;20024;-77
2023/02/28 04:46:05;;;;;;;24.05;10.90;;;25.90;2201.60;;;;;;5082445;28;20790;-78
2023/02/28 04:48:33;;;;;;;22.00;11.30;;;25.90;2201.60;;;;;;5096367;28;20024;-78
2023/02/28 04:51:03;;;;;;;22.67;11.32;;;25.90;2201.60;;;;;;5078452;28;20027;-78
2023/02/28 04:53:30;;;;;;;22.45;11.73;;;26.00;2201.60;;;;;;5095586;28;20545;-78
2023/02/28 04:55:56;;;;;;;22.48;11.23;;;26.00;2201.60;;;;;;5096190;28;20081;-78
2023/02/28 04:58:25;;;;;;;22.73;10.90;;;25.90;2201.60;;;;;;5093484;28;20028;-79
2023/02/28 05:00:52;;;;;;;28.13;14.00;;;25.90;2201.60;;;;;;5096019;28;20039;-79
2023/02/28 05:03:18;;;;;;;28.83;13.93;;;25.90;2201.60;;;;;;5096086;28;20024;-79
2023/02/28 05:05:43;;;;;;;32.80;15.18;;;25.90;2201.60;;;;;;5096084;28;20039;-78
2023/02/28 05:08:09;;;;;;;27.95;14.45;;;25.80;2201.60;;;;;;5094804;28;20024;-78
2023/02/28 05:10:35;;;;;;;38.42;19.30;;;25.80;2201.60;;;;;;5094174;28;20027;-78
2023/02/28 05:13:01;;;;;;;25.23;12.88;;;25.80;2201.60;;;;;;5093150;28;20043;-78
2023/02/28 05:15:27;;;;;;;28.67;14.27;;;25.80;2201.60;;;;;;5092860;28;20056;-78
2023/02/28 05:17:53;;;;;;;25.35;13.18;;;25.90;2201.60;;;;;;5094219;28;20025;-78
2023/02/28 05:20:18;;;;;;;25.77;14.00;;;25.90;2201.60;;;;;;5093672;28;20109;-79
2023/02/28 05:22:44;;;;;;;28.20;12.85;;;25.80;2201.60;;;;;;5093974;28;20141;-78
2023/02/28 05:25:16;;;;;;;39.22;18.80;;;25.80;2201.60;;;;;;5092574;28;20040;-78
2023/02/28 05:27:42;;;;;;;33.13;17.88;;;25.90;2201.60;;;;;;5093870;28;20032;-79
2023/02/28 05:30:10;;;;;;;23.33;11.95;;;25.90;2201.60;;;;;;5093708;28;20032;-78
2023/02/28 05:32:37;;;;;;;22.17;11.52;;;25.90;2201.60;;;;;;5096100;28;20038;-79
2023/02/28 05:35:04;;;;;;;26.95;13.75;;;25.80;2201.60;;;;;;5089244;28;20528;-80
2023/02/28 05:37:29;;;;;;;23.40;12.75;;;25.90;2201.60;;;;;;5094979;28;20036;-79
2023/02/28 05:39:55;;;;;;;24.30;12.70;;;25.70;2201.60;;;;;;5096784;28;20036;-79
2023/02/28 05:42:21;;;;;;;23.98;11.70;;;25.80;2201.60;;;;;;5098255;28;20074;-80
2023/02/28 05:44:47;;;;;;;28.35;14.02;;;25.80;2201.60;;;;;;5100606;28;20057;-79
2023/02/28 05:47:15;;;;;;;31.52;14.25;;;25.80;2201.60;;;;;;5099076;28;20507;-79
2023/02/28 05:50:21;;;;;;;34.05;15.27;;;25.80;2201.60;;;;;;5102842;28;20143;-79
2023/02/28 05:52:52;;;;;;;35.90;16.45;;;25.80;2201.60;;;;;;5101068;28;20022;-79
2023/02/28 05:55:18;;;;;;;37.08;15.70;;;25.80;2201.60;;;;;;5085928;28;20032;-79
2023/02/28 05:57:44;;;;;;;33.20;13.95;;;25.80;2201.60;;;;;;5100439;28;20427;-78
2023/02/28 06:00:11;;;;;;;22.20;10.85;;;25.80;2201.60;;;;;;5099507;28;20032;-79
2023/02/28 06:02:38;;;;;;;27.52;13.43;;;25.80;2201.60;;;;;;5091607;28;20024;-79
2023/02/28 06:05:04;;;;;;;27.83;13.35;;;25.80;2201.60;;;;;;5098261;28;20477;-79
2023/02/28 06:07:30;;;;;;;23.63;11.70;;;25.90;2201.60;;;;;;5099168;28;20024;-79
2023/02/28 06:09:55;;;;;;;21.90;11.23;;;25.90;2201.60;;;;;;5098634;28;20483;-79
2023/02/28 06:12:21;;;;;;;24.13;11.70;;;25.90;2201.60;;;;;;5098765;28;20024;-78
2023/02/28 06:14:47;;;;;;;25.70;12.25;;;25.90;2201.60;;;;;;5098143;28;20035;-79
2023/02/28 06:17:12;;;;;;;33.67;14.77;;;25.90;2201.60;;;;;;5098664;28;20818;-79
2023/02/28 06:19:38;;;;;;;36.25;14.82;;;26.00;2201.60;;;;;;5096795;28;20073;-78
2023/02/28 06:22:04;;;;;;;58.83;22.80;;;26.00;2201.60;;;;;;5080678;28;20020;-79
2023/02/28 06:24:31;;;;;;;51.15;20.77;;;26.00;2201.60;;;;;;5098533;28;20028;-79
2023/02/28 06:26:58;;;;;;;56.72;20.52;;;26.00;2201.60;;;;;;5095618;28;20054;-79
2023/02/28 06:29:25;;;;;;;84.25;32.83;;;26.00;2201.60;;;;;;5079539;28;20061;-79
2023/02/28 06:31:50;;;;;;;64.40;28.13;;;26.10;2201.60;;;;;;5100154;28;20031;-79
2023/02/28 06:34:21;;;;;;;40.95;20.80;;;26.20;2201.60;;;;;;5113707;28;20479;-79
2023/02/28 06:36:50;;;;;;;46.63;23.02;;;26.20;2201.60;;;;;;5098594;28;20028;-79
2023/02/28 06:39:16;;;;;;;38.05;18.77;;;26.10;2201.60;;;;;;5098028;28;20542;-81
2023/02/28 06:41:45;;;;;;;31.27;14.75;;;26.20;2201.60;;;;;;5077608;28;20025;-78
2023/02/28 06:44:16;;;;;;;26.42;13.70;;;26.20;2201.60;;;;;;5086703;28;20052;-78
2023/02/28 06:46:43;;;;;;;35.63;18.55;;;26.20;2201.60;;;;;;5098956;28;20469;-79
2023/02/28 06:49:10;;;;;;;25.20;13.07;;;26.30;2201.60;;;;;;5099269;28;20028;-79
2023/02/28 06:51:38;;;;;;;27.65;14.05;;;26.20;2201.60;;;;;;5098366;28;20020;-80
2023/02/28 06:54:08;;;;;;;39.40;17.50;;;26.20;2201.60;;;;;;5096746;28;20031;-79
2023/02/28 06:56:34;;;;;;;37.92;16.85;;;26.20;2201.60;;;;;;5079498;28;20028;-79
2023/02/28 06:59:00;;;;;;;37.72;16.73;;;26.10;2201.60;;;;;;5098703;28;20024;-79
2023/02/28 07:01:27;;;;;;;39.45;18.67;;;26.10;2201.60;;;;;;5098798;28;20111;-79
2023/02/28 07:03:54;;;;;;;48.55;23.75;;;26.20;2201.60;;;;;;5098433;28;20024;-80
2023/02/28 07:06:22;;;;;;;25.83;12.95;;;26.30;2201.60;;;;;;5099183;28;20362;-79
2023/02/28 07:08:49;;;;;;;25.08;12.82;;;26.30;2201.60;;;;;;5100522;28;20035;-79
2023/02/28 07:11:15;;;;;;;27.42;14.23;;;26.30;2201.60;;;;;;5099590;28;20028;-79
2023/02/28 07:13:40;;;;;;;38.65;19.30;;;26.40;2201.60;;;;;;5086402;28;20119;-80
2023/02/28 07:16:10;;;;;;;32.35;17.13;;;26.50;2201.60;;;;;;5081295;28;20148;-80
2023/02/28 07:18:37;;;;;;;43.55;22.52;;;26.50;2201.60;;;;;;5103246;28;20027;-79
2023/02/28 07:21:04;;;;;;;51.55;26.30;;;26.50;2201.60;;;;;;5103565;28;20032;-80
2023/02/28 07:23:30;;;;;;;36.15;18.40;;;26.40;2201.60;;;;;;5102596;28;20469;-80
2023/02/28 07:25:56;;;;;;;32.17;16.20;;;26.40;2201.60;;;;;;5100814;28;20032;-80
2023/02/28 07:28:22;;;;;;;35.13;17.42;;;26.40;2201.60;;;;;;5101989;28;20073;-79
2023/02/28 07:30:48;;;;;;;36.63;17.73;;;26.40;2201.60;;;;;;5097060;28;20047;-81
2023/02/28 07:33:13;;;;;;;36.97;20.02;;;26.50;2201.60;;;;;;5081559;28;20436;-80
2023/02/28 07:35:39;;;;;;;30.67;16.85;;;26.40;2201.60;;;;;;5078642;28;20040;-79
2023/02/28 07:38:07;;;;;;;31.92;16.40;;;;;;;;;;5101085;28;20103;-80
2023/02/28 07:40:33;;;;;;;32.95;18.08;;;51.40;2227.20;;;;;;5085136;28;20071;-79
2023/02/28 07:43:02;;;;;;;32.10;17.45;;;26.40;2201.60;;;;;;5098604;28;20024;-78
2023/02/28 07:45:29;;;;;;;26.17;14.07;;;26.40;2201.60;;;;;;5099120;28;20389;-78
2023/02/28 07:47:55;;;;;;;26.70;14.68;;;26.40;2201.60;;;;;;5079729;28;20970;-79
2023/02/28 07:50:55;;;;;;;25.60;14.18;;;;;;;;;;5080356;28;20039;-80
2023/02/28 07:53:21;;;;;;;28.17;14.27;;;;;;;;;;5097389;28;20024;-80
2023/02/28 07:55:47;;;;;;;27.45;14.55;;;;;;;;;;5097693;28;20485;-80
2023/02/28 07:58:12;;;;;;;30.20;14.73;;;51.50;2227.20;;;;;;5097813;28;20107;-80
2023/02/28 08:00:38;;;;;;;34.78;17.58;;;51.20;2227.20;;;;;;5097409;28;20515;-80
2023/02/28 08:03:04;;;;;;;28.83;16.40;;;51.20;2227.20;;;;;;5096443;28;20032;-79
2023/02/28 08:05:30;;;;;;;37.85;18.60;;;51.20;2227.20;;;;;;5095221;28;20034;-81
2023/02/28 08:07:56;;;;;;;27.65;13.77;;;51.20;2227.20;;;;;;5098117;28;20087;-80
2023/02/28 08:10:23;;;;;;;31.20;16.55;;;51.70;2227.20;;;;;;5097750;28;20377;-78
2023/02/28 08:12:49;;;;;;;36.83;17.70;;;26.50;2201.60;;;;;;5096961;28;20039;-80
2023/02/28 08:15:15;;;;;;;33.42;17.30;;;51.20;2227.20;;;;;;5096230;28;20032;-79
2023/02/28 08:17:40;;;;;;;49.53;24.83;;;51.20;2227.20;;;;;;5094481;28;20046;-80
2023/02/28 08:20:07;;;;;;;62.00;31.02;;;;;;;;;;5100273;28;20044;-80
2023/02/28 08:22:33;;;;;;;63.17;33.85;;;;;;;;;;5101044;28;20031;-80
2023/02/28 08:24:59;;;;;;;48.92;25.40;;;;;;;;;;5079019;28;20031;-79
2023/02/28 08:27:25;;;;;;;43.55;22.10;;;;;;;;;;5100286;28;20052;-80
2023/02/28 08:29:51;;;;;;;44.17;23.25;;;;;;;;;;5100244;28;20077;-80
2023/02/28 08:32:17;;;;;;;33.58;18.23;;;;;;;;;;5083391;28;20040;-80
2023/02/28 08:34:59;;;;;;;47.75;25.05;;;;;;;;;;5098417;28;20028;-80
2023/02/28 08:37:25;;;;;;;40.70;20.50;;;;;;;;;;5089176;28;20109;-80
2023/02/28 08:39:51;;;;;;;46.40;23.95;;;;;;;;;;5097778;28;20103;-80
2023/02/28 08:42:17;;;;;;;40.70;20.92;;;;;;;;;;5091903;28;20043;-80
2023/02/28 08:44:43;;;;;;;37.33;19.67;;;;;;;;;;5097830;28;20081;-80
2023/02/28 08:47:09;;;;;;;40.67;21.48;;;;;;;;;;5098711;28;20036;-80
2023/02/28 08:49:35;;;;;;;39.78;21.42;;;;;;;;;;5081164;28;20031;-79
2023/02/28 08:52:01;;;;;;;33.83;17.58;;;;;;;;;;5098615;28;20024;-78
2023/02/28 08:54:30;;;;;;;46.65;24.73;;;;;;;;;;5096248;28;20077;-80
2023/02/28 08:56:56;;;;;;;34.88;18.10;;;;;;;;;;5102566;28;20503;-80
2023/02/28 08:59:22;;;;;;;34.28;18.75;;;;;;;;;;5103422;28;20035;-80
2023/02/28 09:01:48;;;;;;;35.72;18.48;;;;;;;;;;5105772;28;20035;-81
2023/02/28 09:04:14;;;;;;;38.47;19.58;;;;;;;;;;5106974;28;20034;-81
2023/02/28 09:06:40;;;;;;;34.55;18.50;;;;;;;;;;5107329;28;20076;-81
2023/02/28 09:09:07;;;;;;;42.58;21.70;;;;;;;;;;5084810;28;20040;-80
2023/02/28 09:11:34;;;;;;;52.83;21.52;;;;;;;;;;5106307;28;20031;-81
2023/02/28 09:14:00;;;;;;;51.22;24.80;;;;;;;;;;5083087;28;20507;-81
2023/02/28 09:16:27;;;;;;;40.95;20.30;;;;;;;;;;5103351;28;20473;-80
2023/02/28 09:18:53;;;;;;;52.42;24.75;;;;;;;;;;5101741;28;20035;-79
2023/02/28 09:21:19;;;;;;;60.92;28.38;;;51.70;2227.20;;;;;;5099805;28;20056;-80
2023/02/28 09:23:46;;;;;;;68.32;30.08;;;51.40;2227.20;;;;;;5083626;28;20040;-80
2023/02/28 09:26:19;;;;;;;56.20;24.33;;;51.40;2227.20;;;;;;5101827;28;20032;-80
2023/02/28 09:28:47;;;;;;;43.60;21.63;;;51.30;2227.20;;;;;;5094941;28;20503;-81
2023/02/28 09:31:24;;;;;;;40.05;20.88;;;51.30;2227.20;;;;;;5101087;28;20484;-80
2023/02/28 09:33:52;;;;;;;66.68;28.27;;;51.40;2227.20;;;;;;5086027;28;20046;-80
2023/02/28 09:36:39;;;;;;;76.70;32.42;;;51.50;2227.20;;;;;;5097797;28;20027;-80
2023/02/28 09:39:05;;;;;;;62.55;28.52;;;51.50;2227.20;;;;;;5098112;28;20048;-80
2023/02/28 09:41:50;;;;;;;42.63;20.30;;;51.50;2227.20;;;;;;5100214;28;20024;-79
2023/02/28 09:44:26;;;;;;;44.75;22.98;;;51.40;2227.20;;;;;;5096275;28;20127;-81
2023/02/28 09:47:01;;;;;;;102.88;42.58;;;51.50;2227.20;;;;;;5096338;28;20028;-80
2023/02/28 09:49:46;;;;;;;70.68;31.67;;;51.60;2227.20;;;;;;5099131;28;20114;-80
2023/02/28 09:52:32;;;;;;;54.33;25.60;;;51.60;2227.20;;;;;;5116159;28;20105;-80
2023/02/28 09:55:24;;;;;;;52.78;25.52;;;51.60;2227.20;;;;;;5100512;28;20044;-80
2023/02/28 09:57:51;;;;;;;41.58;21.58;;;;;;;;;;5086393;28;20033;-81
2023/02/28 10:00:17;;;;;;;49.17;22.67;;;52.00;2227.20;;;;;;5085383;28;20032;-81
2023/02/28 10:02:52;;;;;;;71.80;31.13;;;51.80;2227.20;;;;;;5100003;28;20027;-80
2023/02/28 10:05:19;;;;;;;;;;;51.70;2227.20;;;;;;5099884;28;20437;-80
2023/02/28 10:07:58;;;;;;;52.88;23.88;;;51.80;2201.60;;;;;;5103148;28;19904;-80
2023/02/28 10:10:33;;;;;;;49.40;22.10;;;51.80;2227.20;;;;;;5076543;28;20081;-80
2023/02/28 10:13:04;;;;;;;41.08;20.25;;;51.80;2227.20;;;;;;5095751;28;20412;-80
2023/02/28 10:15:32;;;;;;;47.40;22.92;;;51.80;2227.20;;;;;;5095007;28;20036;-79
2023/02/28 10:18:03;;;;;;;55.13;23.98;;;51.80;2227.20;;;;;;5095148;28;20051;-80
2023/02/28 10:20:33;;;;;;;50.63;23.85;;;51.80;2227.20;;;;;;5095305;28;20485;-80
2023/02/28 10:23:19;;;;;;;36.45;19.52;;;51.80;2227.20;;;;;;5096117;28;20040;-79
2023/02/28 10:26:18;;;;;;;41.50;21.33;;;51.70;2227.20;;;;;;5094351;28;20122;-79
2023/02/28 10:28:45;;;;;;;46.95;23.45;;;51.90;2227.20;;;;;;5096803;28;20044;-79
2023/02/28 10:31:19;;;;;;;53.60;27.77;;;51.80;2227.20;;;;;;5098727;28;20040;-79
2023/02/28 10:33:45;;;;;;;51.57;26.70;;;51.80;2227.20;;;;;;5098536;28;20020;-79
2023/02/28 10:36:31;;;;;;;53.42;27.33;;;51.90;2227.20;;;;;;5099058;28;20302;-80
2023/02/28 10:38:56;;;;;;;47.50;24.00;;;51.80;2201.60;;;;;;5089076;28;20104;-80
2023/02/28 10:41:34;;;;;;;47.63;23.55;;;51.70;2124.80;;;;;;5087168;28;20370;-82
2023/02/28 10:44:23;;;;;;;49.03;24.50;;;51.80;2227.20;;;;;;5101245;28;20050;-79
2023/02/28 10:46:50;;;;;;;42.47;21.40;;;51.70;1920.00;;;;;;5085694;28;20032;-80
2023/02/28 10:49:22;;;;;;;38.90;20.40;;;51.70;2227.20;;;;;;5101902;28;20024;-80
2023/02/28 10:51:52;;;;;;;36.15;18.98;;;51.70;2227.20;;;;;;5100786;28;20058;-80
2023/02/28 10:54:26;;;;;;;38.55;19.95;;;51.80;2227.20;;;;;;5102720;28;20024;-80
2023/02/28 10:57:24;;;;;;;42.60;21.60;;;51.80;2201.60;;;;;;5102304;28;20043;-81
2023/02/28 11:00:05;;;;;;;46.33;22.90;;;51.90;2227.20;;;;;;5039447;28;20476;-80
2023/02/28 11:02:37;;;;;;;71.18;33.13;;;51.90;2227.20;;;;;;5039748;28;20041;-80
2023/02/28 11:05:23;;;;;;;69.93;33.38;;;51.80;2227.20;;;;;;5039943;28;20120;-81
2023/02/28 11:08:11;;;;;;;62.80;30.10;;;51.90;2227.20;;;;;;5023929;28;20042;-80
2023/02/28 11:10:36;;;;;;;93.78;40.58;;;51.90;2227.20;;;;;;5046501;28;20075;-80
2023/02/28 11:13:03;;;;;;;106.00;43.83;;;52.00;2227.20;;;;;;5047805;28;20083;-81
2023/02/28 11:15:35;;;;;;;105.90;45.83;;;52.10;2227.20;;;;;;5049775;28;20045;-81
2023/02/28 11:18:12;;;;;;;64.53;33.08;;;76.80;2227.20;;;;;;5042264;28;20105;-80
2023/02/28 11:21:16;;;;;;;57.55;29.48;;;76.80;2227.20;;;;;;5042102;28;20042;-81
2023/02/28 11:23:43;;;;;;;72.82;38.25;;;76.80;2227.20;;;;;;5042950;28;20062;-79
2023/02/28 11:26:10;;;;;;;60.30;31.90;;;76.80;2227.20;;;;;;5021584;28;20128;-79
2023/02/28 11:28:39;;;;;;;58.28;30.35;;;76.90;2227.20;;;;;;5037485;28;20032;-79
2023/02/28 11:31:13;;;;;;;62.67;32.70;;;76.90;2227.20;;;;;;5037264;28;20033;-79
2023/02/28 11:33:49;;;;;;;54.83;27.05;;;77.00;2227.20;;;;;;5020086;28;20033;-79
2023/02/28 11:36:24;;;;;;;48.88;26.38;;;77.10;2227.20;;;;;;5058428;28;20503;-79
2023/02/28 11:38:51;;;;;;;47.10;24.35;;;77.10;2227.20;;;;;;5098478;28;20024;-79
2023/02/28 11:41:20;;;;;;;54.83;26.80;;;77.20;2227.20;;;;;;5096662;28;20029;-78
2023/02/28 11:43:51;;;;;;;51.60;24.25;;;77.30;2227.20;;;;;;5097504;28;20032;-79
2023/02/28 11:46:33;;;;;;;61.22;26.30;;;77.40;2227.20;;;;;;5080822;28;20068;-79
2023/02/28 11:49:05;;;;;;;65.43;27.35;;;77.50;2227.20;;;;;;5103622;28;20034;-79
2023/02/28 11:51:44;;;;;;;56.90;25.58;;;77.50;2227.20;;;;;;5101893;28;20020;-78
2023/02/28 11:54:28;;;;;;;92.00;39.60;;;77.60;2227.20;;;;;;5077793;28;20117;-78
2023/02/28 11:57:32;;;;;;;65.68;35.20;;;77.60;2227.20;;;;;;5099768;28;20377;-78
2023/02/28 12:00:24;;;;;;;109.85;44.10;;;77.60;2227.20;;;;;;5095007;28;20036;-79
2023/02/28 12:03:07;;;;;;;51.33;26.65;;;77.40;2227.20;;;;;;5095728;28;20024;-79
2023/02/28 12:06:00;;;;;;;53.97;27.65;;;77.30;2227.20;;;;;;5100044;28;20040;-77
2023/02/28 12:08:41;;;;;;;69.22;33.55;;;77.40;2227.20;;;;;;5093217;28;20032;-79
2023/02/28 12:11:26;;;;;;;48.15;25.50;;;77.40;2227.20;;;;;;5091589;28;20028;-77
2023/02/28 12:14:24;;;;;;;43.53;24.67;;;77.40;2227.20;;;;;;5083834;28;20571;-80
2023/02/28 12:16:53;;;;;;;43.00;23.08;;;77.30;2227.20;;;;;;5098176;28;20020;-79
2023/02/28 12:19:18;;;;;;;60.22;30.95;;;77.40;2227.20;;;;;;5099380;28;20052;-76
2023/02/28 12:22:05;;;;;;;43.78;23.13;;;77.30;2227.20;;;;;;5099366;28;20108;-77
2023/02/28 12:24:31;;;;;;;35.38;19.63;;;77.30;2227.20;;;;;;5095809;28;20036;-78
2023/02/28 12:27:00;;;;;;;39.10;22.40;;;77.30;1971.20;;;;;;5097253;28;20433;-79
2023/02/28 12:29:34;;;;;;;51.13;25.08;;;77.20;2227.20;;;;;;5094540;28;20054;-78
2023/02/28 12:32:23;;;;;;;58.53;27.70;;;77.20;2227.20;;;;;;5109203;28;20036;-78
2023/02/28 12:35:01;;;;;;;55.88;27.00;;;77.30;2227.20;;;;;;5095828;28;20028;-77
2023/02/28 12:37:57;;;;;;;56.55;30.45;;;77.30;2227.20;;;;;;5093772;28;20469;-77
2023/02/28 12:40:27;;;;;;;49.78;29.33;;;77.30;2227.20;;;;;;5092998;28;20082;-77
2023/02/28 12:43:04;;;;;;;56.92;29.58;;;77.30;2227.20;;;;;;5093384;28;20020;-78
2023/02/28 12:45:48;;;;;;;49.40;25.65;;;77.30;2227.20;;;;;;5075359;28;20039;-77
2023/02/28 12:48:25;;;;;;;57.63;28.25;;;77.40;2227.20;;;;;;5093235;28;20032;-77